Woodstock, Connecticut
Current Conditions -  °F | °C
As of 7:41 AM on Monday 24 Nov 2014 (Local Time) from KIJD Reporting Station
Heavy Rain Heavy Rain  
Wind Chill: 62°   Ceiling: 900
Heat Index: 62°   Visibility: 1.5mi
Dew Point: 59°   Wind: 16mph
Humidity: 90%   Direction: 180°S
Pressure: 29.75"   Gusts: 30mph
Location:  41.95°N, 71.97°W
Report Text: KIJD 241241Z AUTO 18014G26KT 1 1/2SM +RA BR BKN009 OVC014 17/15 A2975 RMK AO2 PK WND 17029/1215 P0016 T01670150
Loading
Personal Weather Stations






























Interactive Weather Map New forecast layout! Learn more

10-Day Weather Forecast

Advertisements
Track Severe Weather on mobile